Liberty Corner, NJ (07938)

10:47 AM EDT on October 02, 2014 (GMT -0400)
Mount Horeb Park | Change Station
CLOSE
Current Station
Personal Weather Station
Location: Warren, NJ
Elevation: 480 ft
Nearby Weather Stations

Elev 480 ft 40.63 °N, 74.57 °W | Updated 10 seconds ago

Overcast
Overcast
62.7 °F
Feels Like 62.7 °F
N
0.0
Wind Variable Wind from NW
Gusts 4.0 mph

Today
High -- | Low -- °F
--% Chance of Precip.
Yesterday
High -- | Low -- °F
Precip. -- in
6:55 AM 6:38 PM
First Quarter, 59% visible
Pressure 30.13 in
Visibility 10.0 miles
Clouds Mostly Cloudy 2300 ft
Dew Point 62 °F
Humidity 99%
Rainfall 0.00 in
Snow Depth Not available.
UV 2 out of 12
Pollen 2.50 out of 12
Air Quality Not available.
Flu Activity Not available.
SPECI KSMQ 021429Z AUTO 36008KT 10SM BKN023 19/12 A3013 RMK AO2 T01890122

More Conditions Fewer Conditions

Pressure 30.13 in
Visibility 10.0 miles
Clouds Mostly Cloudy 2300 ft
Dew Point 62 °F
Humidity 99%
Rainfall 0.00 in
Snow Depth Not available.
UV 2 out of 12
Pollen 2.50 out of 12
Air Quality Not available.
Flu Activity Not available.
SPECI KSMQ 021429Z AUTO 36008KT 10SM BKN023 19/12 A3013 RMK AO2 T01890122

More Conditions Fewer Conditions

10-Day Weather Forecast

Almanac

Astronomy

Oct. 02, 2014 Rise Set
Actual Time 6:55 AM EDT 6:38 PM EDT
Civil Twilight 6:28 AM EDT 7:06 PM EDT
Nautical Twilight 5:56 AM EDT 7:37 PM EDT
Astronomical Twilight 5:24 AM EDT 8:09 PM EDT
Moon 2:44 PM EDT 12:08 AM EDT
Length of Visible Light 12h 37m
Length of Day
11h 42m
Tomorrow will be 2m 40s shorter.
First Quarter, 59% of the Moon is Illuminated
Today
First Quarter
Oct 8
Full
Oct 15
Last Quarter
Oct 23
New
Oct 30
First Quarter

Today's Extremes

State Highs State Lows

Community

WunderPhotos

Upload Photos

1,758,257 photos uploaded!

WunderBlogs® & News

Nearby

Snow Depth

Station Depth Elevation
No new snow has been reported.

Earthquake Activity

City Distance Mag. Time & Date
No recent earthquake activity has been reported nearby.
Minimum magnitude displayed is 2.5.

Coastal Water Temperatures

Place Temperature
Sandy Hook, NJ 66.9 °F
The Battery, NY 69.1 °F
Bergen Point West Reach, NJ 68.0 °F
Kings Point, NY 66.0 °F

Nearby Weather Stations